Time;durP1;ratioP1;P1;durP2;ratioP2;P2;SDS_P1;SDS_P2;PMS_P1;PMS_P2;Temp;Humidity;BMP_temperature;BMP_pressure;BME280_temperature;BME280_humidity;BME280_pressure;Samples;Min_cycle;Max_cycle;Signal;HPM_P1;HPM_P2
2022/05/26 00:02:03;;;;;;;18.08;3.97;;;14.40;99.90;;;;;;5107630;28;20156;-82
2022/05/26 00:04:29;;;;;;;13.45;4.47;;;14.40;99.90;;;;;;5108925;28;20051;-82
2022/05/26 00:06:56;;;;;;;16.60;5.07;;;14.40;99.90;;;;;;5089369;28;20488;-82
2022/05/26 00:09:22;;;;;;;21.52;5.03;;;14.40;99.90;;;;;;5106745;28;20054;-82
2022/05/26 00:11:48;;;;;;;19.50;4.90;;;14.40;99.90;;;;;;5107553;28;20044;-82
2022/05/26 00:14:14;;;;;;;18.27;4.43;;;14.30;99.90;;;;;;5108049;28;20039;-82
2022/05/26 00:16:45;;;;;;;19.50;5.15;;;14.30;99.90;;;;;;5108311;28;20554;-83
2022/05/26 00:19:13;;;;;;;21.05;6.00;;;14.30;99.90;;;;;;5107820;28;20058;-82
2022/05/26 00:21:39;;;;;;;19.08;4.75;;;14.30;99.90;;;;;;5107265;28;20446;-82
2022/05/26 00:24:05;;;;;;;18.85;5.18;;;14.20;99.90;;;;;;5107718;28;20043;-82
2022/05/26 00:26:31;;;;;;;17.90;3.83;;;14.20;99.90;;;;;;5108194;27;20066;-83
2022/05/26 00:28:57;;;;;;;25.30;4.57;;;14.20;99.90;;;;;;5107185;28;20092;-82
2022/05/26 00:31:23;;;;;;;15.60;4.22;;;14.20;99.90;;;;;;5106071;28;20083;-82
2022/05/26 00:33:48;;;;;;;19.67;5.85;;;14.20;99.90;;;;;;5106704;28;20060;-82
2022/05/26 00:36:17;;;;;;;17.83;4.53;;;14.10;99.90;;;;;;5107358;28;20042;-82
2022/05/26 00:38:43;;;;;;;15.07;4.22;;;14.30;99.90;;;;;;5112804;28;20111;-82
2022/05/26 00:41:11;;;;;;;14.23;4.57;;;14.30;99.90;;;;;;5108843;28;20548;-82
2022/05/26 00:43:45;;;;;;;25.92;5.80;;;14.80;99.90;;;;;;5114470;28;20047;-82
2022/05/26 00:46:35;;;;;;;23.42;4.30;;;14.10;99.90;;;;;;5119517;28;20474;-81
2022/05/26 00:49:02;;;;;;;19.80;4.65;;;14.00;99.90;;;;;;5118154;28;20477;-81
2022/05/26 00:51:32;;;;;;;11.93;4.45;;;13.20;99.90;;;;;;5109441;28;20404;-83
2022/05/26 00:54:03;;;;;;;37.63;6.22;;;14.00;99.90;;;;;;5107515;28;20096;-83
2022/05/26 00:56:40;;;;;;;19.92;5.10;;;13.90;99.90;;;;;;5106425;28;20047;-82
2022/05/26 00:59:31;;;;;;;17.63;4.85;;;14.00;99.90;;;;;;5106018;28;20449;-83
2022/05/26 01:01:58;;;;;;;19.10;4.47;;;13.90;99.90;;;;;;5105539;28;20043;-83
2022/05/26 01:04:25;;;;;;;21.38;5.05;;;13.90;99.90;;;;;;5107818;28;20135;-82
2022/05/26 01:07:17;;;;;;;22.63;5.03;;;13.90;99.90;;;;;;5088226;28;20047;-83
2022/05/26 01:09:43;;;;;;;16.02;4.72;;;14.40;99.90;;;;;;5107364;28;20148;-82
2022/05/26 01:12:09;;;;;;;25.85;5.18;;;13.90;99.90;;;;;;5106385;28;20043;-82
2022/05/26 01:14:40;;;;;;;21.88;4.88;;;13.90;99.90;;;;;;5106626;28;20126;-83
2022/05/26 01:17:26;;;;;;;27.63;4.88;;;13.30;99.90;;;;;;5106171;28;20046;-83
2022/05/26 01:20:04;;;;;;;23.38;6.32;;;14.00;99.90;;;;;;5106510;28;20417;-82
2022/05/26 01:22:44;;;;;;;27.98;4.68;;;14.00;99.90;;;;;;5107111;28;20047;-83
2022/05/26 01:25:16;;;;;;;19.00;4.90;;;14.00;99.90;;;;;;5107135;28;20443;-83
2022/05/26 01:27:45;;;;;;;21.58;5.85;;;14.10;99.90;;;;;;5106315;28;20054;-82
2022/05/26 01:30:21;;;;;;;16.88;4.60;;;14.30;99.90;;;;;;5105451;28;20047;-82
2022/05/26 01:33:21;;;;;;;22.65;4.40;;;14.00;99.90;;;;;;5105079;28;20484;-83
2022/05/26 01:36:06;;;;;;;18.40;4.63;;;14.00;99.90;;;;;;5106223;28;20374;-82
2022/05/26 01:39:02;;;;;;;26.85;5.00;;;13.90;99.90;;;;;;5107061;28;20404;-82
2022/05/26 01:41:31;;;;;;;17.52;4.03;;;14.00;99.90;;;;;;5105053;28;20079;-83
2022/05/26 01:44:12;;;;;;;12.52;3.75;;;14.00;99.90;;;;;;5106813;28;20145;-83
2022/05/26 01:46:41;;;;;;;21.75;5.03;;;14.00;99.90;;;;;;5106910;28;20108;-83
2022/05/26 01:49:27;;;;;;;28.55;3.80;;;13.90;99.90;;;;;;5105872;28;20036;-82
2022/05/26 01:52:32;;;;;;;19.23;3.90;;;13.90;99.90;;;;;;5107119;28;20040;-82
2022/05/26 01:55:13;;;;;;;20.65;3.60;;;14.00;99.90;;;;;;5088243;28;20130;-83
2022/05/26 01:57:54;;;;;;;21.88;3.55;;;13.90;99.90;;;;;;5105801;28;20039;-82
2022/05/26 02:00:23;;;;;;;14.02;3.63;;;14.00;99.90;;;;;;5106866;28;20369;-82
2022/05/26 02:03:05;;;;;;;20.88;4.03;;;14.30;99.90;;;;;;5104526;28;20450;-82
2022/05/26 02:05:40;;;;;;;15.00;4.47;;;14.00;99.90;;;;;;5106389;28;20113;-82
2022/05/26 02:08:14;;;;;;;23.10;4.47;;;15.20;99.90;;;;;;5106439;28;20050;-82
2022/05/26 02:10:49;;;;;;;18.00;3.45;;;14.00;99.90;;;;;;5105902;28;20047;-82
2022/05/26 02:13:21;;;;;;;18.08;3.08;;;14.00;99.90;;;;;;5106745;28;20149;-82
2022/05/26 02:15:55;;;;;;;19.10;3.95;;;13.90;99.90;;;;;;5106564;28;20040;-82
2022/05/26 02:18:23;;;;;;;20.17;3.80;;;13.90;99.90;;;;;;5107085;28;20059;-82
2022/05/26 02:21:14;;;;;;;21.67;3.72;;;13.90;99.90;;;;;;5107028;28;20445;-82
2022/05/26 02:24:04;;;;;;;15.52;4.05;;;13.80;99.90;;;;;;5109042;28;20050;-82
2022/05/26 02:26:31;;;;;;;20.13;4.07;;;13.80;99.90;;;;;;5110489;28;20047;-82
2022/05/26 02:31:43;;;;;;;18.77;3.85;;;13.80;99.90;;;;;;5109718;28;20048;-82
2022/05/26 02:34:09;;;;;;;16.15;2.85;;;13.80;99.90;;;;;;5110714;28;20051;-82
2022/05/26 02:36:37;;;;;;;21.27;3.72;;;14.60;99.90;;;;;;5109583;28;20035;-82
2022/05/26 02:39:04;;;;;;;19.15;3.70;;;13.80;99.90;;;;;;5110363;28;20523;-83
2022/05/26 02:41:30;;;;;;;22.33;4.93;;;13.90;99.90;;;;;;5109931;28;20027;-82
2022/05/26 02:43:57;;;;;;;23.33;4.53;;;14.70;99.90;;;;;;5110086;28;20096;-82
2022/05/26 02:46:43;;;;;;;21.05;4.60;;;14.60;99.90;;;;;;5109954;27;20086;-82
2022/05/26 02:49:26;;;;;;;18.85;3.30;;;13.80;99.90;;;;;;5097983;28;20114;-82
2022/05/26 02:52:36;;;;;;;17.38;3.42;;;13.70;99.90;;;;;;5110452;28;20411;-82
2022/05/26 02:55:22;;;;;;;17.20;3.03;;;13.70;99.90;;;;;;5046246;28;20131;-83
2022/05/26 02:58:13;;;;;;;16.42;3.35;;;13.70;99.90;;;;;;5029183;28;20122;-82
2022/05/26 03:00:48;;;;;;;27.65;3.58;;;13.70;99.90;;;;;;5095662;28;20091;-82
2022/05/26 03:04:00;;;;;;;10.20;2.63;;;13.70;99.90;;;;;;5109145;28;20051;-82
2022/05/26 03:06:35;;;;;;;14.98;3.70;;;13.60;99.90;;;;;;5076093;28;20388;-82
2022/05/26 03:09:03;;;;;;;19.35;3.38;;;13.60;99.90;;;;;;5108320;28;20498;-82
2022/05/26 03:11:29;;;;;;;16.45;3.03;;;13.50;99.90;;;;;;5107649;28;20035;-82
2022/05/26 03:13:55;;;;;;;17.10;2.53;;;13.50;99.90;;;;;;5110170;28;20043;-83
2022/05/26 03:16:21;;;;;;;17.70;2.72;;;14.10;99.90;;;;;;5114033;28;20081;-82
2022/05/26 03:18:47;;;;;;;14.85;3.60;;;13.40;99.90;;;;;;5119592;28;20031;-82
2022/05/26 03:21:13;;;;;;;15.35;2.47;;;13.40;99.90;;;;;;5109740;28;20035;-83
2022/05/26 03:23:39;;;;;;;15.10;2.88;;;13.40;99.90;;;;;;5107380;28;20075;-83
2022/05/26 03:26:07;;;;;;;17.75;3.30;;;13.40;99.90;;;;;;5107864;28;20082;-83
2022/05/26 03:28:33;;;;;;;10.52;2.83;;;13.40;99.90;;;;;;5108846;28;20050;-83
2022/05/26 03:30:59;;;;;;;17.98;3.42;;;14.30;99.90;;;;;;5107605;28;20044;-83
2022/05/26 03:33:25;;;;;;;14.15;2.35;;;14.00;99.90;;;;;;5090379;28;20046;-83
2022/05/26 03:41:22;;;;;;;15.32;2.75;;;13.30;99.90;;;;;;5108732;28;20047;-83
2022/05/26 03:43:53;;;;;;;9.07;1.98;;;13.30;99.90;;;;;;5107357;28;20381;-83
2022/05/26 03:46:19;;;;;;;21.30;2.72;;;13.30;99.90;;;;;;5108681;28;20043;-83
2022/05/26 03:48:45;;;;;;;15.23;2.95;;;13.30;99.90;;;;;;5106640;28;20560;-83
2022/05/26 03:51:11;;;;;;;13.85;3.05;;;14.20;99.90;;;;;;5109038;28;20043;-83
2022/05/26 03:53:37;;;;;;;15.25;3.70;;;13.90;99.90;;;;;;5108171;28;20035;-83
2022/05/26 03:56:04;;;;;;;10.73;2.13;;;14.20;99.90;;;;;;5109229;28;20043;-83
2022/05/26 03:58:31;;;;;;;12.18;2.05;;;13.20;99.90;;;;;;5106887;28;20050;-83
2022/05/26 04:01:01;;;;;;;9.50;2.40;;;13.70;99.90;;;;;;5109883;28;20035;-82
2022/05/26 04:03:27;;;;;;;9.55;2.05;;;13.20;99.90;;;;;;5107506;28;20056;-83
2022/05/26 04:05:53;;;;;;;10.07;2.05;;;13.40;99.90;;;;;;5108121;28;20055;-83
2022/05/26 04:08:19;;;;;;;7.95;1.90;;;13.30;99.90;;;;;;5108864;28;20047;-83
2022/05/26 04:10:44;;;;;;;7.68;1.80;;;13.40;99.90;;;;;;5107593;28;20043;-83
2022/05/26 04:13:11;;;;;;;6.40;1.60;;;13.30;99.90;;;;;;5107080;28;20044;-83
2022/05/26 04:15:37;;;;;;;11.48;2.70;;;13.80;99.90;;;;;;5106444;28;20496;-83
2022/05/26 04:18:02;;;;;;;10.65;1.92;;;14.20;99.90;;;;;;5108668;28;20131;-83
2022/05/26 04:20:28;;;;;;;10.90;1.60;;;13.90;99.90;;;;;;5108081;28;20035;-83
2022/05/26 04:22:54;;;;;;;8.43;1.52;;;13.30;99.90;;;;;;5107671;27;20134;-83
2022/05/26 04:25:22;;;;;;;7.22;1.42;;;13.30;99.90;;;;;;5108067;28;20105;-83
2022/05/26 04:27:53;;;;;;;4.72;1.25;;;13.30;99.90;;;;;;5107528;28;20069;-83
2022/05/26 04:30:19;;;;;;;5.95;1.17;;;13.40;99.90;;;;;;5107025;28;20051;-83
2022/05/26 04:32:45;;;;;;;10.13;1.42;;;13.40;99.90;;;;;;5105962;28;20048;-83
2022/05/26 04:35:11;;;;;;;6.50;0.90;;;13.70;99.90;;;;;;5106844;28;20075;-83
2022/05/26 04:37:38;;;;;;;7.63;1.23;;;13.50;99.90;;;;;;5107776;28;20036;-83
2022/05/26 04:40:05;;;;;;;2.72;0.95;;;14.50;99.90;;;;;;5089034;28;20061;-83
2022/05/26 04:42:31;;;;;;;7.28;1.45;;;13.40;99.90;;;;;;5107800;28;20477;-83
2022/05/26 04:44:57;;;;;;;5.93;1.23;;;13.40;99.90;;;;;;5105812;28;20136;-82
2022/05/26 04:47:23;;;;;;;7.68;1.27;;;13.40;99.90;;;;;;5106509;28;20073;-83
2022/05/26 04:49:48;;;;;;;5.53;0.95;;;13.40;99.90;;;;;;5105392;28;20065;-83
2022/05/26 04:52:17;;;;;;;8.50;1.20;;;13.60;99.90;;;;;;5107571;28;20130;-83
2022/05/26 04:54:44;;;;;;;7.90;1.00;;;13.50;99.90;;;;;;5105973;28;20069;-83
2022/05/26 04:57:12;;;;;;;4.75;0.93;;;14.20;99.90;;;;;;5105550;28;20115;-83
2022/05/26 04:59:39;;;;;;;8.07;1.27;;;13.50;99.90;;;;;;5106164;28;20071;-83
2022/05/26 05:02:05;;;;;;;7.90;0.98;;;13.60;99.90;;;;;;5106656;28;20105;-83
2022/05/26 05:04:31;;;;;;;2.95;0.55;;;13.60;99.90;;;;;;5106089;28;20083;-83
2022/05/26 05:06:57;;;;;;;3.75;0.68;;;14.20;99.90;;;;;;5107017;28;20107;-83
2022/05/26 05:09:24;;;;;;;8.90;1.25;;;14.80;99.90;;;;;;5107196;28;20643;-83
2022/05/26 05:11:50;;;;;;;3.63;0.70;;;13.80;99.90;;;;;;5105350;28;20085;-83
2022/05/26 05:14:16;;;;;;;5.45;0.98;;;13.70;99.90;;;;;;5106746;28;20035;-84
2022/05/26 05:16:43;;;;;;;5.18;0.70;;;13.80;99.90;;;;;;5106075;28;20051;-83
2022/05/26 05:19:10;;;;;;;6.00;0.77;;;13.80;99.90;;;;;;5106407;28;20411;-83
2022/05/26 05:21:43;;;;;;;7.13;1.75;;;13.80;99.90;;;;;;5107144;28;20565;-83
2022/05/26 05:24:19;;;;;;;4.53;0.80;;;13.90;99.90;;;;;;5106794;28;20047;-83
2022/05/26 05:26:50;;;;;;;5.40;0.93;;;13.90;99.90;;;;;;5106963;28;20045;-83
2022/05/26 05:29:20;;;;;;;6.53;0.90;;;14.90;99.90;;;;;;5105531;28;20097;-83
2022/05/26 05:31:50;;;;;;;5.25;0.68;;;14.40;99.90;;;;;;5106101;28;20054;-83
2022/05/26 05:34:27;;;;;;;4.50;0.70;;;14.10;99.90;;;;;;5107344;28;20051;-83
2022/05/26 05:36:53;;;;;;;10.32;0.93;;;15.20;99.90;;;;;;5105857;28;20091;-83
2022/05/26 05:39:19;;;;;;;7.90;0.80;;;14.20;99.90;;;;;;5089893;28;20047;-83
2022/05/26 05:41:45;;;;;;;7.68;1.23;;;14.20;99.90;;;;;;5109796;28;20518;-83
2022/05/26 05:44:11;;;;;;;5.65;1.17;;;14.30;99.90;;;;;;5109346;28;20043;-82
2022/05/26 05:46:57;;;;;;;11.10;0.95;;;14.30;99.90;;;;;;5108228;28;20040;-84
2022/05/26 05:49:27;;;;;;;4.60;0.70;;;15.50;99.90;;;;;;5105178;28;20058;-84
2022/05/26 05:51:54;;;;;;;1.83;0.63;;;14.90;99.90;;;;;;5108291;28;20036;-83
2022/05/26 05:54:20;;;;;;;5.93;1.77;;;14.50;99.90;;;;;;5107254;28;20044;-83
2022/05/26 05:56:47;;;;;;;5.85;0.80;;;14.70;99.90;;;;;;5106159;28;20082;-83
2022/05/26 05:59:14;;;;;;;4.82;0.80;;;14.60;99.90;;;;;;5104969;28;20075;-83
2022/05/26 06:01:39;;;;;;;6.03;1.05;;;14.70;99.90;;;;;;5105901;28;20044;-83
2022/05/26 06:04:05;;;;;;;3.70;0.80;;;15.40;99.90;;;;;;5107093;28;20039;-84
2022/05/26 06:06:40;;;;;;;6.38;0.88;;;14.80;99.90;;;;;;5104127;28;20043;-83
2022/05/26 06:09:07;;;;;;;7.28;1.42;;;14.90;99.90;;;;;;5106931;28;20052;-83
2022/05/26 06:11:33;;;;;;;8.98;0.82;;;15.40;99.90;;;;;;5105727;28;20071;-83
2022/05/26 06:14:00;;;;;;;5.00;0.90;;;15.00;99.90;;;;;;5106380;28;20048;-83
2022/05/26 06:16:27;;;;;;;9.23;0.82;;;15.10;99.90;;;;;;5106247;28;20492;-84
2022/05/26 06:18:53;;;;;;;4.05;0.57;;;15.80;99.90;;;;;;5105665;28;20062;-83
2022/05/26 06:21:19;;;;;;;9.85;1.23;;;15.20;99.90;;;;;;5106253;28;20051;-83
2022/05/26 06:23:45;;;;;;;4.38;0.70;;;15.30;99.90;;;;;;5105535;28;20075;-82
2022/05/26 06:26:11;;;;;;;7.55;0.88;;;16.40;99.90;;;;;;5108241;28;20104;-83
2022/05/26 06:31:23;;;;;;;7.50;0.70;;;15.50;99.90;;;;;;5105812;28;20706;-83
2022/05/26 06:39:10;;;;;;;2.55;0.50;;;16.00;99.90;;;;;;5110172;28;20051;-83
2022/05/26 06:44:20;;;;;;;5.85;0.98;;;15.90;99.90;;;;;;5108764;28;20062;-83
2022/05/26 06:46:49;;;;;;;4.10;0.82;;;15.90;99.90;;;;;;5111587;28;20496;-83
2022/05/26 06:49:15;;;;;;;6.85;1.60;;;15.90;99.90;;;;;;5108889;28;20044;-83
2022/05/26 06:51:43;;;;;;;3.10;0.60;;;15.90;99.90;;;;;;5110657;28;20056;-84
2022/05/26 06:54:09;;;;;;;4.80;0.40;;;15.90;99.90;;;;;;5111048;28;20047;-82
2022/05/26 06:56:35;;;;;;;4.60;1.13;;;15.80;99.90;;;;;;5110568;28;20075;-82
2022/05/26 06:59:02;;;;;;;3.35;1.10;;;15.80;99.90;;;;;;5111316;28;20369;-83
2022/05/26 07:01:27;;;;;;;8.15;1.08;;;15.80;99.90;;;;;;5092489;28;20055;-83
2022/05/26 07:03:53;;;;;;;3.92;0.50;;;15.80;99.90;;;;;;5111459;28;20056;-82
2022/05/26 07:06:25;;;;;;;3.90;0.45;;;15.80;99.90;;;;;;5091086;28;20036;-83
2022/05/26 07:08:51;;;;;;;5.03;0.70;;;15.90;99.90;;;;;;5110717;28;20051;-82
2022/05/26 07:11:17;;;;;;;4.28;0.70;;;15.90;99.90;;;;;;5113197;28;20031;-83
2022/05/26 07:13:49;;;;;;;7.60;1.00;;;16.00;99.90;;;;;;5115215;27;20069;-82
2022/05/26 07:16:15;;;;;;;1.85;0.40;;;16.00;99.90;;;;;;5113568;28;20040;-82
2022/05/26 07:18:41;;;;;;;5.03;0.93;;;16.00;99.90;;;;;;5114449;27;20099;-81
2022/05/26 07:21:09;;;;;;;3.65;0.57;;;15.90;99.90;;;;;;5099514;28;20039;-81
2022/05/26 07:23:35;;;;;;;4.38;0.75;;;15.90;99.90;;;;;;5115041;28;20039;-82
2022/05/26 07:26:11;;;;;;;4.22;0.80;;;15.80;99.90;;;;;;5073030;28;20189;-82
2022/05/26 07:28:38;;;;;;;3.70;0.63;;;15.80;99.90;;;;;;5071675;28;20057;-82
2022/05/26 07:31:04;;;;;;;5.03;0.70;;;16.60;99.90;;;;;;5054542;28;20092;-83
2022/05/26 07:33:31;;;;;;;5.93;0.75;;;15.80;99.90;;;;;;5056339;28;20041;-83
2022/05/26 07:35:56;;;;;;;3.03;0.50;;;16.00;99.90;;;;;;5056121;28;20199;-83
2022/05/26 07:41:19;;;;;;;5.00;1.15;;;16.20;99.90;;;;;;5053742;28;20059;-82
2022/05/26 07:43:49;;;;;;;5.53;0.95;;;16.30;99.90;;;;;;5071176;28;20072;-83
2022/05/26 07:46:16;;;;;;;3.75;0.55;;;16.40;99.90;;;;;;5065843;28;20056;-83
2022/05/26 07:48:42;;;;;;;2.75;0.55;;;16.60;99.90;;;;;;5065220;28;20050;-83
2022/05/26 07:51:07;;;;;;;3.97;0.60;;;16.70;99.90;;;;;;5066303;28;20135;-84
2022/05/26 07:53:33;;;;;;;7.07;0.80;;;16.80;99.90;;;;;;5064487;28;20159;-83
2022/05/26 07:56:01;;;;;;;8.13;0.60;;;16.80;99.90;;;;;;5049295;28;20175;-84
2022/05/26 07:58:28;;;;;;;3.85;0.73;;;16.90;99.90;;;;;;5064188;28;20579;-83
2022/05/26 08:00:54;;;;;;;8.65;1.05;;;17.60;99.90;;;;;;5065640;28;20044;-83
2022/05/26 08:03:21;;;;;;;3.35;1.05;;;17.00;99.90;;;;;;5072945;28;20059;-83
2022/05/26 08:05:47;;;;;;;8.68;0.60;;;17.10;99.90;;;;;;5108224;28;20168;-83
2022/05/26 08:08:14;;;;;;;4.35;0.60;;;17.00;99.90;;;;;;5109194;28;20515;-83
2022/05/26 08:10:42;;;;;;;7.07;0.85;;;17.10;99.90;;;;;;5106367;28;20044;-83
2022/05/26 08:13:08;;;;;;;5.80;0.82;;;17.10;99.90;;;;;;5110712;28;20476;-82
2022/05/26 08:15:34;;;;;;;5.22;0.55;;;17.20;99.90;;;;;;5121531;28;20046;-83
2022/05/26 08:18:00;;;;;;;2.65;0.50;;;17.20;99.90;;;;;;5109811;28;20545;-84
2022/05/26 08:20:26;;;;;;;4.30;0.30;;;17.40;99.90;;;;;;5107007;28;20040;-84
2022/05/26 08:22:52;;;;;;;0.73;0.40;;;17.20;99.90;;;;;;5090266;28;20052;-84
2022/05/26 08:25:18;;;;;;;3.78;0.50;;;17.20;99.90;;;;;;5108909;28;20043;-84
2022/05/26 08:27:44;;;;;;;2.72;0.88;;;17.40;99.90;;;;;;5107187;28;20540;-84
2022/05/26 08:30:10;;;;;;;6.00;0.65;;;17.50;99.90;;;;;;5106932;28;20138;-84
2022/05/26 08:32:35;;;;;;;4.88;0.70;;;17.60;99.90;;;;;;5105531;28;20101;-84
2022/05/26 08:35:07;;;;;;;2.30;0.55;;;17.60;99.90;;;;;;5108641;28;20040;-84
2022/05/26 08:37:33;;;;;;;5.15;0.68;;;17.60;99.90;;;;;;5106366;28;20047;-84
2022/05/26 08:39:59;;;;;;;4.72;0.63;;;17.70;99.90;;;;;;5106310;28;20411;-84
2022/05/26 08:42:27;;;;;;;4.75;1.02;;;17.80;99.90;;;;;;5107621;28;20122;-84
2022/05/26 08:45:01;;;;;;;3.00;0.50;;;17.80;99.90;;;;;;5106652;28;20075;-85
2022/05/26 08:47:42;;;;;;;9.00;0.80;;;17.90;99.90;;;;;;5108392;27;20096;-84
2022/05/26 08:50:10;;;;;;;3.40;0.47;;;18.10;99.90;;;;;;5105370;28;20057;-84
2022/05/26 08:53:14;;;;;;;1.98;0.50;;;18.20;99.90;;;;;;5106604;28;20460;-84
2022/05/26 08:55:45;;;;;;;4.88;0.47;;;18.10;99.90;;;;;;5076490;28;20059;-85
2022/05/26 08:58:16;;;;;;;5.78;0.85;;;18.20;99.90;;;;;;5108328;28;20122;-84
2022/05/26 09:00:44;;;;;;;5.43;0.45;;;18.20;99.90;;;;;;5114355;28;20095;-84
2022/05/26 09:03:31;;;;;;;5.38;0.45;;;18.70;99.90;;;;;;5127636;28;20113;-83
2022/05/26 09:06:05;;;;;;;3.30;0.40;;;18.50;99.90;;;;;;5114319;28;20059;-83
2022/05/26 09:14:39;;;;;;;4.03;0.50;;;18.60;99.90;;;;;;5105713;28;20047;-84
2022/05/26 09:17:07;;;;;;;3.72;0.47;;;18.60;99.90;;;;;;5107884;28;20038;-84
2022/05/26 09:19:53;;;;;;;4.45;0.30;;;18.80;99.90;;;;;;5105014;28;20118;-85
2022/05/26 09:22:33;;;;;;;3.40;0.40;;;18.80;99.90;;;;;;5107474;27;20503;-83
2022/05/26 09:25:00;;;;;;;5.55;0.80;;;18.60;99.90;;;;;;5107662;28;20050;-84
2022/05/26 09:27:29;;;;;;;2.95;0.70;;;18.60;99.90;;;;;;5105207;28;20527;-84
2022/05/26 09:30:33;;;;;;;4.65;0.30;;;18.40;99.90;;;;;;5107635;28;20123;-84
2022/05/26 09:33:00;;;;;;;1.40;0.40;;;18.30;99.90;;;;;;5104933;27;20598;-83
2022/05/26 09:35:34;;;;;;;3.97;0.73;;;18.20;99.90;;;;;;5105868;28;20047;-84
2022/05/26 09:38:02;;;;;;;3.10;0.47;;;18.00;99.90;;;;;;5107483;28;20054;-84
2022/05/26 09:40:35;;;;;;;1.98;0.70;;;17.80;99.90;;;;;;5087849;28;20036;-84
2022/05/26 09:43:08;;;;;;;5.50;0.60;;;17.80;99.90;;;;;;5106059;28;20051;-84
2022/05/26 09:45:41;;;;;;;3.75;0.40;;;18.00;99.90;;;;;;5105801;28;20108;-84
2022/05/26 09:48:24;;;;;;;2.67;0.30;;;18.20;99.90;;;;;;5105714;28;20484;-84
2022/05/26 09:51:16;;;;;;;3.88;0.65;;;18.50;99.90;;;;;;5106863;28;20658;-85
2022/05/26 09:53:44;;;;;;;1.10;0.30;;;18.80;97.70;;;;;;5104347;28;20428;-83
2022/05/26 09:56:25;;;;;;;1.85;0.63;;;18.90;99.90;;;;;;5105444;28;20571;-83
2022/05/26 09:58:51;;;;;;;2.17;0.30;;;19.10;99.90;;;;;;5104790;28;20054;-84
2022/05/26 10:01:26;;;;;;;3.95;0.50;;;19.30;99.90;;;;;;5088249;28;20048;-84
2022/05/26 10:04:01;;;;;;;4.47;0.68;;;19.60;99.90;;;;;;5105669;28;20508;-84
2022/05/26 10:06:35;;;;;;;4.22;0.50;;;19.70;99.90;;;;;;5104363;28;20056;-83
2022/05/26 10:09:09;;;;;;;3.05;0.60;;;19.70;98.80;;;;;;5105721;28;20143;-84
2022/05/26 10:12:18;;;;;;;1.08;0.30;;;19.70;99.40;;;;;;5087302;28;20051;-85
2022/05/26 10:15:12;;;;;;;2.05;0.30;;;19.70;94.00;;;;;;5104047;28;20083;-84
2022/05/26 10:18:28;;;;;;;1.88;0.30;;;19.70;93.30;;;;;;5106769;28;20107;-84
2022/05/26 10:21:14;;;;;;;1.63;0.30;;;19.70;94.30;;;;;;5093694;28;20129;-84
2022/05/26 10:24:17;;;;;;;6.05;0.30;;;19.30;91.40;;;;;;5105685;28;20073;-84
2022/05/26 10:26:56;;;;;;;3.30;0.38;;;19.50;93.90;;;;;;5088349;28;20507;-85
2022/05/26 10:29:56;;;;;;;3.25;0.30;;;19.40;95.20;;;;;;5106776;28;20066;-84
2022/05/26 10:33:03;;;;;;;3.65;0.40;;;19.40;95.00;;;;;;5105138;28;20514;-83
2022/05/26 10:35:52;;;;;;;5.03;1.05;;;19.40;93.30;;;;;;5106438;28;20047;-84
2022/05/26 10:38:43;;;;;;;2.05;0.40;;;19.50;96.20;;;;;;5105657;28;20044;-83
2022/05/26 10:41:11;;;;;;;1.73;0.32;;;19.50;97.20;;;;;;5106534;28;20481;-83
2022/05/26 10:43:53;;;;;;;2.83;0.52;;;19.50;98.30;;;;;;5120167;28;20043;-82
2022/05/26 10:46:26;;;;;;;2.15;0.57;;;19.50;95.70;;;;;;5119407;28;20137;-82
2022/05/26 10:49:12;;;;;;;4.15;0.85;;;19.40;98.80;;;;;;5116285;27;20036;-83
2022/05/26 10:52:20;;;;;;;3.08;0.73;;;19.40;98.00;;;;;;5097101;28;20121;-83
2022/05/26 10:54:51;;;;;;;6.18;0.80;;;19.40;97.90;;;;;;5034435;28;20053;-84
2022/05/26 10:57:40;;;;;;;4.28;0.47;;;19.50;98.90;;;;;;5107468;28;20389;-85
2022/05/26 11:00:15;;;;;;;4.38;0.60;;;19.80;97.90;;;;;;5059093;28;20058;-86
2022/05/26 11:03:02;;;;;;;2.55;0.40;;;20.00;97.50;;;;;;5115916;28;20430;-85
2022/05/26 11:05:45;;;;;;;4.53;0.50;;;20.10;96.90;;;;;;5115362;28;20043;-84
2022/05/26 11:08:35;;;;;;;1.08;0.35;;;20.10;96.90;;;;;;5116704;28;20044;-84
2022/05/26 11:11:19;;;;;;;3.42;0.60;;;20.10;93.10;;;;;;5115063;28;20048;-84
2022/05/26 11:14:02;;;;;;;2.30;0.45;;;19.60;97.40;;;;;;5115265;28;20058;-85
2022/05/26 11:19:50;;;;;;;4.32;0.38;;;20.80;94.20;;;;;;5113317;28;20058;-84
2022/05/26 11:22:17;;;;;;;2.55;0.47;;;20.80;95.00;;;;;;5114579;28;20412;-85
2022/05/26 11:24:53;;;;;;;2.72;0.50;;;20.90;96.80;;;;;;5095957;28;20043;-84
2022/05/26 11:27:26;;;;;;;3.63;0.65;;;21.00;94.90;;;;;;5114848;28;20138;-84
2022/05/26 11:30:05;;;;;;;4.57;0.73;;;21.00;95.70;;;;;;5115968;28;20035;-85
2022/05/26 11:38:15;;;;;;;3.92;0.52;;;21.20;93.20;;;;;;5068023;28;20657;-84
2022/05/26 11:41:03;;;;;;;2.13;0.60;;;21.10;92.20;;;;;;5114277;28;20129;-84
2022/05/26 11:43:36;;;;;;;1.83;0.28;;;21.00;92.10;;;;;;5116607;28;20046;-83
2022/05/26 11:46:03;;;;;;;2.22;0.52;;;20.60;91.60;;;;;;5114001;28;20046;-84
2022/05/26 11:48:32;;;;;;;3.63;0.57;;;20.40;94.50;;;;;;5115619;28;20052;-85
2022/05/26 11:51:24;;;;;;;2.50;0.50;;;20.30;94.90;;;;;;5112706;28;20044;-85
2022/05/26 11:53:50;;;;;;;4.85;0.65;;;20.40;95.80;;;;;;5111098;28;20043;-86
2022/05/26 11:56:30;;;;;;;7.88;0.95;;;20.40;96.50;;;;;;5111320;28;20043;-85
2022/05/26 11:59:37;;;;;;;2.42;0.40;;;20.40;94.00;;;;;;5110502;28;20048;-84
2022/05/26 12:02:06;;;;;;;2.53;0.70;;;20.40;95.20;;;;;;5093844;28;20580;-85
2022/05/26 12:04:35;;;;;;;3.45;0.52;;;20.50;95.80;;;;;;5095172;28;20410;-85
2022/05/26 12:07:45;;;;;;;2.80;0.52;;;20.40;95.70;;;;;;5111677;28;20056;-85
2022/05/26 12:10:22;;;;;;;2.65;0.68;;;20.40;92.80;;;;;;5111280;28;20412;-85
2022/05/26 12:12:55;;;;;;;7.22;1.15;;;20.20;95.70;;;;;;5110892;28;20055;-85
2022/05/26 12:15:22;;;;;;;;;;;20.10;96.60;;;;;;5111768;27;20051;-83
2022/05/26 12:17:55;;;;;;;4.43;0.60;;;20.10;95.40;;;;;;5111419;28;19926;-84
2022/05/26 12:20:21;;;;;;;1.60;0.40;;;20.20;96.50;;;;;;5111422;28;20165;-85
2022/05/26 12:22:52;;;;;;;4.15;0.70;;;20.10;96.50;;;;;;5112967;28;20051;-85
2022/05/26 12:25:33;;;;;;;1.15;0.30;;;19.90;96.60;;;;;;5110718;28;20048;-85
2022/05/26 12:28:01;;;;;;;2.80;0.50;;;19.90;96.80;;;;;;5110261;28;20040;-85
2022/05/26 12:31:06;;;;;;;3.63;0.80;;;20.00;97.10;;;;;;5093801;28;20079;-86
2022/05/26 12:33:57;;;;;;;2.10;0.60;;;20.10;93.50;;;;;;5107294;28;20541;-84
2022/05/26 12:36:47;;;;;;;2.28;0.45;;;20.20;94.90;;;;;;5106526;28;20134;-85
2022/05/26 12:39:32;;;;;;;3.40;0.30;;;20.20;96.60;;;;;;5107188;28;20053;-85
2022/05/26 12:42:09;;;;;;;1.80;0.52;;;20.20;94.90;;;;;;5107127;28;20043;-85
2022/05/26 12:45:09;;;;;;;2.65;0.68;;;20.10;95.20;;;;;;5106440;28;20055;-85
2022/05/26 12:47:51;;;;;;;4.57;0.50;;;19.90;95.80;;;;;;5108313;28;20047;-85
2022/05/26 12:50:24;;;;;;;3.55;0.55;;;19.80;97.00;;;;;;5105724;28;20043;-85
2022/05/26 12:52:55;;;;;;;;;;;19.80;97.30;;;;;;5107622;28;20465;-85
2022/05/26 12:55:30;;;;;;;5.03;0.60;;;19.70;96.10;;;;;;5107565;28;19923;-84
2022/05/26 12:58:06;;;;;;;5.28;0.95;;;19.70;96.80;;;;;;5105360;28;20040;-85
2022/05/26 13:00:46;;;;;;;2.25;0.65;;;19.80;98.00;;;;;;5106568;28;20043;-85
2022/05/26 13:03:46;;;;;;;2.35;0.50;;;19.80;97.00;;;;;;5105150;28;20055;-85
2022/05/26 13:06:21;;;;;;;4.40;0.50;;;19.80;97.50;;;;;;5074152;28;20415;-85
2022/05/26 13:09:01;;;;;;;3.30;0.57;;;19.80;97.90;;;;;;5106560;28;20404;-85
2022/05/26 13:11:33;;;;;;;4.38;0.70;;;19.70;98.00;;;;;;5117384;28;20070;-84
2022/05/26 13:14:07;;;;;;;7.55;0.98;;;19.70;98.60;;;;;;5111579;28;20047;-86
2022/05/26 13:16:39;;;;;;;4.22;0.38;;;19.70;98.40;;;;;;5106259;28;20056;-84
2022/05/26 13:19:22;;;;;;;3.03;0.47;;;19.50;97.70;;;;;;5105848;28;20510;-85
2022/05/26 13:21:54;;;;;;;2.85;0.75;;;19.30;97.30;;;;;;5106372;28;20080;-84
2022/05/26 13:24:27;;;;;;;3.38;0.77;;;19.20;98.80;;;;;;5105062;28;20523;-85
2022/05/26 13:27:03;;;;;;;4.28;0.80;;;19.20;99.00;;;;;;5106724;28;20039;-85
2022/05/26 13:29:32;;;;;;;2.65;0.50;;;19.20;99.20;;;;;;5105384;28;20150;-85
2022/05/26 13:34:51;;;;;;;3.58;0.60;;;19.10;99.70;;;;;;5092051;28;20413;-85
2022/05/26 13:37:22;;;;;;;4.85;0.52;;;19.00;99.90;;;;;;5104510;28;20501;-85
2022/05/26 13:40:09;;;;;;;2.58;0.80;;;19.00;99.90;;;;;;5105822;28;20062;-85
2022/05/26 13:42:38;;;;;;;6.95;1.15;;;19.00;99.90;;;;;;5105491;28;20108;-85
2022/05/26 13:45:11;;;;;;;3.65;0.70;;;19.00;99.90;;;;;;5104629;28;20434;-86
2022/05/26 13:47:36;;;;;;;7.72;0.70;;;19.00;99.90;;;;;;5089481;28;20178;-85
2022/05/26 13:50:05;;;;;;;7.43;0.82;;;19.10;99.90;;;;;;5087981;28;20070;-85
2022/05/26 13:52:34;;;;;;;3.33;0.85;;;19.00;99.90;;;;;;5105741;28;20142;-85
2022/05/26 13:55:27;;;;;;;5.18;0.73;;;19.60;99.90;;;;;;5106236;28;20031;-85
2022/05/26 13:57:57;;;;;;;;;;;19.10;99.90;;;;;;5101741;28;20052;-85